Time;durP1;ratioP1;P1;durP2;ratioP2;P2;SDS_P1;SDS_P2;PMS_P1;PMS_P2;Temp;Humidity;BMP_temperature;BMP_pressure;BME280_temperature;BME280_humidity;BME280_pressure;Samples;Min_cycle;Max_cycle;Signal;HPM_P1;HPM_P2
2021/03/24 00:00:14;;;;;;;40.30;24.80;;;4.40;93.50;;;;;;5062203;28;20505;-77
2021/03/24 00:02:41;;;;;;;49.30;27.87;;;4.40;93.60;;;;;;5064400;28;20048;-77
2021/03/24 00:05:10;;;;;;;40.60;25.47;;;4.40;93.60;;;;;;5061204;28;20071;-77
2021/03/24 00:07:38;;;;;;;46.37;26.40;;;4.40;93.60;;;;;;5041883;28;20040;-77
2021/03/24 00:10:07;;;;;;;44.73;26.43;;;4.30;93.90;;;;;;5066292;28;20043;-77
2021/03/24 00:12:34;;;;;;;47.73;27.97;;;4.30;93.60;;;;;;5064423;28;20048;-77
2021/03/24 00:15:03;;;;;;;38.87;22.83;;;4.30;93.70;;;;;;5062409;28;20043;-77
2021/03/24 00:17:30;;;;;;;53.67;29.80;;;4.30;93.70;;;;;;5067204;28;20051;-77
2021/03/24 00:19:56;;;;;;;39.43;24.00;;;4.30;93.70;;;;;;5067826;28;20051;-77
2021/03/24 00:22:23;;;;;;;43.93;26.20;;;4.30;93.70;;;;;;5064491;28;20049;-77
2021/03/24 00:24:50;;;;;;;49.43;27.70;;;4.30;93.80;;;;;;5071879;28;20036;-77
2021/03/24 00:27:23;;;;;;;46.73;26.93;;;4.30;93.70;;;;;;5047793;28;20071;-77
2021/03/24 00:29:50;;;;;;;49.63;27.97;;;4.30;93.80;;;;;;5066317;28;20052;-76
2021/03/24 00:32:16;;;;;;;58.93;32.33;;;4.30;93.80;;;;;;5042732;28;20399;-76
2021/03/24 00:34:44;;;;;;;49.47;29.57;;;4.30;93.80;;;;;;5072082;28;20048;-76
2021/03/24 00:37:11;;;;;;;47.83;28.93;;;4.20;93.90;;;;;;5066043;28;20057;-77
2021/03/24 00:39:37;;;;;;;47.93;28.27;;;4.20;93.90;;;;;;5066425;28;20048;-77
2021/03/24 00:42:05;;;;;;;47.57;26.73;;;4.20;93.90;;;;;;5053049;28;20053;-77
2021/03/24 00:44:31;;;;;;;47.77;27.00;;;4.20;93.90;;;;;;5053296;28;20040;-77
2021/03/24 00:46:57;;;;;;;43.73;26.23;;;4.20;93.90;;;;;;5034673;28;20486;-77
2021/03/24 00:49:27;;;;;;;43.57;25.60;;;4.20;93.90;;;;;;5059588;28;20056;-77
2021/03/24 00:51:54;;;;;;;48.67;25.83;;;4.20;93.90;;;;;;5060271;28;20028;-77
2021/03/24 00:54:21;;;;;;;55.13;31.10;;;4.10;93.90;;;;;;5033164;28;20040;-77
2021/03/24 00:56:50;;;;;;;53.37;30.87;;;4.10;94.00;;;;;;5063352;28;20051;-77
2021/03/24 00:59:17;;;;;;;58.33;31.77;;;4.10;94.00;;;;;;5047284;28;20487;-77
2021/03/24 01:01:44;;;;;;;47.10;27.47;;;4.00;94.00;;;;;;5069212;28;20920;-77
2021/03/24 01:04:10;;;;;;;53.90;31.97;;;4.00;94.00;;;;;;5062398;28;20048;-77
2021/03/24 01:06:40;;;;;;;39.50;22.53;;;3.90;94.00;;;;;;5044501;28;20049;-77
2021/03/24 01:09:09;;;;;;;40.35;23.85;;;3.90;94.10;;;;;;5059104;28;20506;-77
2021/03/24 01:11:37;;;;;;;50.30;29.73;;;3.90;94.10;;;;;;5062176;28;20261;-77
2021/03/24 01:14:04;;;;;;;44.40;24.43;;;3.90;94.10;;;;;;5069215;28;20040;-77
2021/03/24 01:16:33;;;;;;;53.53;29.70;;;3.90;94.10;;;;;;5055450;28;20052;-77
2021/03/24 01:18:59;;;;;;;56.20;31.13;;;3.90;94.10;;;;;;5055142;28;20040;-77
2021/03/24 01:21:26;;;;;;;58.10;32.47;;;3.90;94.10;;;;;;5060679;28;20044;-77
2021/03/24 01:23:52;;;;;;;48.53;27.47;;;3.80;94.20;;;;;;5066440;28;20044;-77
2021/03/24 01:26:20;;;;;;;58.17;33.70;;;3.80;94.20;;;;;;5065538;28;20037;-77
2021/03/24 01:28:57;;;;;;;56.23;31.03;;;3.80;94.20;;;;;;5069481;28;20048;-77
2021/03/24 01:31:31;;;;;;;58.37;32.70;;;3.80;94.30;;;;;;5033451;28;20507;-77
2021/03/24 01:33:59;;;;;;;53.67;30.30;;;3.80;94.30;;;;;;5070216;28;20048;-77
2021/03/24 01:36:28;;;;;;;51.67;28.30;;;3.80;94.30;;;;;;5040002;28;20065;-77
2021/03/24 01:38:55;;;;;;;54.97;28.47;;;3.80;94.30;;;;;;5051270;28;20044;-77
2021/03/24 01:41:25;;;;;;;52.83;30.00;;;3.80;94.30;;;;;;5045787;28;20556;-77
2021/03/24 01:44:08;;;;;;;49.93;28.57;;;3.80;94.30;;;;;;5071933;28;20067;-77
2021/03/24 01:46:41;;;;;;;37.13;22.47;;;3.80;94.30;;;;;;5049242;28;20055;-76
2021/03/24 01:49:11;;;;;;;50.97;28.50;;;3.70;94.30;;;;;;5062891;28;20485;-77
2021/03/24 01:51:46;;;;;;;45.73;25.67;;;3.70;94.30;;;;;;5054563;28;20033;-77
2021/03/24 01:54:27;;;;;;;47.40;26.07;;;3.70;94.40;;;;;;5078989;28;20467;-77
2021/03/24 01:57:02;;;;;;;48.23;28.10;;;3.70;94.40;;;;;;5060154;28;20029;-76
2021/03/24 01:59:29;;;;;;;49.17;26.10;;;3.60;94.40;;;;;;5073936;28;20076;-77
2021/03/24 02:01:56;;;;;;;50.70;27.47;;;3.60;94.40;;;;;;5078266;28;20044;-77
2021/03/24 02:04:23;;;;;;;51.93;28.40;;;3.60;94.40;;;;;;5075642;28;20043;-77
2021/03/24 02:07:10;;;;;;;56.33;30.03;;;3.60;94.40;;;;;;5078191;28;20040;-77
2021/03/24 02:09:56;;;;;;;52.50;29.00;;;3.60;94.40;;;;;;5059336;28;20139;-77
2021/03/24 02:12:33;;;;;;;40.27;21.73;;;3.60;94.40;;;;;;5071288;28;20043;-77
2021/03/24 02:15:18;;;;;;;55.83;31.23;;;3.60;94.40;;;;;;5061069;28;20039;-77
2021/03/24 02:17:46;;;;;;;45.37;24.57;;;3.60;94.40;;;;;;5074960;28;20064;-77
2021/03/24 02:20:18;;;;;;;55.60;29.67;;;3.60;94.40;;;;;;5077605;28;20043;-76
2021/03/24 02:22:52;;;;;;;41.20;22.70;;;3.60;94.40;;;;;;5070327;28;20052;-77
2021/03/24 02:25:32;;;;;;;44.97;24.40;;;3.60;94.40;;;;;;5059306;28;20043;-76
2021/03/24 02:28:04;;;;;;;45.17;25.63;;;3.60;94.50;;;;;;5082194;28;20044;-77
2021/03/24 02:30:34;;;;;;;55.27;30.87;;;3.50;94.50;;;;;;5079909;28;20028;-77
2021/03/24 02:33:06;;;;;;;48.63;26.57;;;3.50;94.50;;;;;;5070176;28;20407;-77
2021/03/24 02:35:36;;;;;;;49.60;26.20;;;3.50;94.50;;;;;;5080333;28;20032;-77
2021/03/24 02:38:06;;;;;;;57.83;29.50;;;3.50;94.60;;;;;;5076480;28;20483;-77
2021/03/24 02:40:35;;;;;;;53.53;29.43;;;3.50;94.60;;;;;;5053674;28;20090;-77
2021/03/24 02:43:03;;;;;;;49.60;27.23;;;3.40;94.60;;;;;;5068761;28;20040;-77
2021/03/24 02:45:34;;;;;;;62.23;34.47;;;3.40;94.60;;;;;;5055839;28;20049;-77
2021/03/24 02:48:06;;;;;;;58.53;31.67;;;3.40;94.60;;;;;;5067610;28;20503;-77
2021/03/24 02:50:33;;;;;;;58.47;31.47;;;3.40;94.60;;;;;;5067759;28;20040;-76
2021/03/24 02:53:01;;;;;;;63.50;34.90;;;3.40;94.60;;;;;;5067190;28;20055;-77
2021/03/24 02:55:30;;;;;;;69.03;36.47;;;3.40;94.70;;;;;;5031995;28;20099;-77
2021/03/24 02:57:57;;;;;;;69.20;36.07;;;3.30;94.70;;;;;;5064632;28;20037;-77
2021/03/24 03:00:24;;;;;;;63.03;34.33;;;3.30;94.70;;;;;;5055765;28;20048;-77
2021/03/24 03:03:01;;;;;;;59.03;32.80;;;3.30;94.80;;;;;;5041088;28;20040;-77
2021/03/24 03:05:33;;;;;;;62.43;34.07;;;3.30;94.80;;;;;;5071970;28;20044;-77
2021/03/24 03:08:07;;;;;;;49.40;27.20;;;3.20;94.80;;;;;;5070795;28;20032;-77
2021/03/24 03:10:59;;;;;;;61.30;33.23;;;3.20;94.80;;;;;;5040856;28;20387;-77
2021/03/24 03:13:36;;;;;;;61.73;33.80;;;3.20;94.90;;;;;;5088520;28;20158;-77
2021/03/24 03:16:14;;;;;;;50.63;25.57;;;3.20;94.90;;;;;;5060080;28;20051;-77
2021/03/24 03:18:59;;;;;;;49.47;28.80;;;3.20;94.90;;;;;;5093649;28;20047;-76
2021/03/24 03:21:31;;;;;;;45.27;23.43;;;3.20;94.90;;;;;;5078229;28;20507;-77
2021/03/24 03:24:01;;;;;;;62.60;31.33;;;3.20;94.90;;;;;;5072491;28;20059;-77
2021/03/24 03:26:31;;;;;;;64.90;33.43;;;3.20;94.80;;;;;;5087351;28;20558;-77
2021/03/24 03:29:05;;;;;;;60.77;33.73;;;3.20;94.80;;;;;;5075062;28;20024;-77
2021/03/24 03:31:35;;;;;;;66.17;33.43;;;3.20;94.90;;;;;;5073422;28;20044;-77
2021/03/24 03:34:05;;;;;;;63.40;33.73;;;3.20;94.90;;;;;;5051832;28;20073;-77
2021/03/24 03:36:33;;;;;;;52.50;28.37;;;3.10;94.80;;;;;;5054084;28;20041;-77
2021/03/24 03:39:01;;;;;;;55.93;30.80;;;3.10;94.90;;;;;;5047643;28;20025;-77
2021/03/24 03:41:29;;;;;;;56.80;31.33;;;3.10;94.90;;;;;;5045242;28;20052;-77
2021/03/24 03:43:56;;;;;;;64.67;33.43;;;3.00;94.90;;;;;;5072979;28;20035;-77
2021/03/24 03:46:27;;;;;;;45.20;24.50;;;3.00;94.90;;;;;;5038477;28;20040;-77
2021/03/24 03:48:54;;;;;;;61.17;32.07;;;3.00;94.90;;;;;;5048963;28;20044;-77
2021/03/24 03:51:40;;;;;;;75.20;38.00;;;3.00;95.00;;;;;;5067872;28;20036;-77
2021/03/24 03:54:13;;;;;;;70.23;37.63;;;3.00;95.10;;;;;;5039884;28;20035;-77
2021/03/24 03:56:50;;;;;;;58.30;31.02;;;3.00;95.00;;;;;;5071556;28;20055;-77
2021/03/24 03:59:25;;;;;;;64.73;34.57;;;3.00;95.00;;;;;;5069557;28;20033;-78
2021/03/24 04:01:56;;;;;;;55.03;29.00;;;3.10;95.00;;;;;;5048930;28;20391;-78
2021/03/24 04:04:47;;;;;;;74.13;35.43;;;3.10;95.00;;;;;;5052382;28;20031;-78
2021/03/24 04:07:26;;;;;;;57.90;30.27;;;3.00;95.00;;;;;;5048147;28;20044;-77
2021/03/24 04:09:55;;;;;;;59.77;30.43;;;3.00;95.00;;;;;;5048177;28;20044;-77
2021/03/24 04:12:25;;;;;;;52.50;28.77;;;2.90;95.00;;;;;;5066343;28;20048;-79
2021/03/24 04:14:53;;;;;;;71.10;40.27;;;2.90;95.00;;;;;;5073991;28;20035;-79
2021/03/24 04:17:25;;;;;;;52.60;28.67;;;2.90;95.10;;;;;;5052128;28;20048;-78
2021/03/24 04:19:54;;;;;;;70.07;35.85;;;2.90;95.10;;;;;;5078238;28;20486;-77
2021/03/24 04:22:26;;;;;;;57.43;30.43;;;2.90;95.10;;;;;;5051296;28;20039;-78
2021/03/24 04:24:55;;;;;;;69.22;35.75;;;2.90;95.10;;;;;;5052465;28;20036;-77
2021/03/24 04:27:28;;;;;;;56.93;29.23;;;2.80;95.10;;;;;;5044469;28;20040;-76
2021/03/24 04:30:00;;;;;;;50.78;27.77;;;2.90;95.20;;;;;;5043765;28;20036;-79
2021/03/24 04:32:27;;;;;;;88.28;42.45;;;2.90;95.20;;;;;;5064049;28;20040;-79
2021/03/24 04:34:54;;;;;;;66.33;32.33;;;2.90;95.20;;;;;;5067502;28;20483;-78
2021/03/24 04:37:37;;;;;;;65.50;33.47;;;3.00;95.20;;;;;;5047334;28;20459;-77
2021/03/24 04:40:18;;;;;;;58.63;31.43;;;3.00;95.20;;;;;;5052451;28;20044;-78
2021/03/24 04:42:51;;;;;;;63.53;33.97;;;3.00;95.20;;;;;;5043015;28;20037;-78
2021/03/24 04:45:26;;;;;;;70.53;34.22;;;3.00;95.20;;;;;;5064133;28;20539;-76
2021/03/24 04:47:56;;;;;;;53.60;27.87;;;2.90;95.20;;;;;;5064222;28;20036;-78
2021/03/24 04:50:28;;;;;;;52.50;28.50;;;2.90;95.20;;;;;;5068699;28;20490;-77
2021/03/24 04:52:58;;;;;;;63.70;32.17;;;2.80;95.20;;;;;;5064660;28;20044;-77
2021/03/24 04:55:27;;;;;;;47.57;25.17;;;2.80;95.30;;;;;;5072981;28;20451;-77
2021/03/24 04:57:58;;;;;;;63.70;33.07;;;2.80;95.30;;;;;;5070349;28;20040;-77
2021/03/24 05:00:43;;;;;;;68.40;35.50;;;2.80;95.40;;;;;;5055990;28;20036;-77
2021/03/24 05:03:18;;;;;;;60.37;32.13;;;2.80;95.40;;;;;;5059477;28;20506;-77
2021/03/24 05:05:56;;;;;;;69.03;35.17;;;2.70;95.40;;;;;;5069843;28;20490;-77
2021/03/24 05:08:35;;;;;;;77.20;38.63;;;2.70;95.40;;;;;;5060580;28;20039;-77
2021/03/24 05:11:09;;;;;;;67.77;34.37;;;2.70;95.50;;;;;;5066465;28;20036;-77
2021/03/24 05:14:00;;;;;;;72.40;35.67;;;2.70;95.50;;;;;;5067647;28;20032;-76
2021/03/24 05:16:34;;;;;;;72.13;37.23;;;2.70;95.40;;;;;;5042773;28;20045;-76
2021/03/24 05:19:02;;;;;;;64.50;35.90;;;2.70;95.70;;;;;;5037851;28;20032;-77
2021/03/24 05:21:46;;;;;;;66.63;35.03;;;2.70;95.40;;;;;;5037635;28;20037;-77
2021/03/24 05:24:14;;;;;;;64.37;34.10;;;2.70;95.50;;;;;;5051772;28;20052;-77
2021/03/24 05:26:48;;;;;;;53.67;29.83;;;2.60;95.40;;;;;;5053757;28;20055;-77
2021/03/24 05:29:24;;;;;;;63.30;33.30;;;2.70;95.50;;;;;;5049480;28;20494;-76
2021/03/24 05:31:54;;;;;;;66.93;35.20;;;2.60;95.40;;;;;;5035521;28;20043;-76
2021/03/24 05:34:31;;;;;;;57.37;30.93;;;2.60;95.40;;;;;;5053054;28;20024;-77
2021/03/24 05:37:00;;;;;;;65.97;35.03;;;2.60;95.40;;;;;;5054230;28;20048;-77
2021/03/24 05:39:30;;;;;;;71.93;35.53;;;2.60;95.50;;;;;;5053800;28;20032;-77
2021/03/24 05:42:01;;;;;;;68.17;36.57;;;2.60;95.50;;;;;;5046742;28;20051;-77
2021/03/24 05:44:53;;;;;;;71.27;36.30;;;2.60;95.50;;;;;;5058121;28;20048;-77
2021/03/24 05:47:37;;;;;;;68.03;33.30;;;2.60;95.50;;;;;;5047974;28;20474;-77
2021/03/24 05:50:26;;;;;;;62.37;31.23;;;2.60;95.50;;;;;;5044301;28;20065;-76
2021/03/24 05:53:03;;;;;;;69.90;34.70;;;2.60;95.50;;;;;;5049533;28;20059;-77
2021/03/24 05:55:32;;;;;;;64.73;33.27;;;2.60;95.40;;;;;;5055398;28;20040;-77
2021/03/24 05:58:16;;;;;;;61.90;32.73;;;2.60;95.40;;;;;;5053366;28;20048;-77
2021/03/24 06:01:04;;;;;;;63.77;32.40;;;2.60;95.40;;;;;;5049692;28;20028;-76
2021/03/24 06:03:42;;;;;;;64.63;33.33;;;2.60;95.50;;;;;;5048864;28;20033;-76
2021/03/24 06:06:43;;;;;;;69.67;34.07;;;2.70;95.50;;;;;;5038644;28;20044;-76
2021/03/24 06:09:57;;;;;;;88.73;34.87;;;2.80;95.50;;;;;;5054253;28;20032;-77
2021/03/24 06:12:42;;;;;;;181.80;30.17;;;2.90;95.40;;;;;;4993581;28;20052;-76
2021/03/24 06:15:46;;;;;;;97.67;27.90;;;2.90;95.30;;;;;;5067676;28;20040;-76
2021/03/24 06:18:36;;;;;;;90.67;27.97;;;3.00;95.30;;;;;;5030086;28;20419;-76
2021/03/24 06:21:41;;;;;;;204.50;29.17;;;3.10;95.30;;;;;;5015236;28;20435;-76
2021/03/24 06:24:22;;;;;;;81.97;28.87;;;3.10;95.30;;;;;;5027869;28;20044;-77
2021/03/24 06:26:57;;;;;;;102.77;28.20;;;3.20;95.30;;;;;;5032477;28;20411;-77
2021/03/24 06:29:41;;;;;;;74.83;27.27;;;3.30;95.30;;;;;;5017788;28;20049;-77
2021/03/24 06:32:20;;;;;;;58.53;26.43;;;3.40;95.40;;;;;;5029119;28;20060;-77
2021/03/24 06:35:34;;;;;;;47.53;25.90;;;3.40;95.30;;;;;;5033172;28;20068;-77
2021/03/24 06:38:24;;;;;;;45.87;25.63;;;3.50;95.30;;;;;;4970893;28;20049;-76
2021/03/24 06:41:26;;;;;;;47.13;27.30;;;3.70;95.30;;;;;;5031532;28;20049;-77
2021/03/24 06:44:01;;;;;;;42.07;25.73;;;3.80;95.30;;;;;;4999163;28;20055;-76
2021/03/24 06:46:34;;;;;;;47.47;27.87;;;3.90;95.20;;;;;;5016081;28;20033;-77
2021/03/24 06:49:39;;;;;;;51.57;30.33;;;4.10;95.20;;;;;;5050268;28;20068;-77
2021/03/24 06:52:34;;;;;;;51.50;28.53;;;4.30;95.20;;;;;;5031587;28;20377;-77
2021/03/24 06:55:31;;;;;;;62.93;34.30;;;4.50;95.10;;;;;;5017140;28;20033;-77
2021/03/24 06:58:19;;;;;;;64.27;33.33;;;4.60;95.00;;;;;;5016175;28;20381;-77
2021/03/24 07:01:33;;;;;;;61.63;34.67;;;4.80;95.00;;;;;;5033749;28;20048;-77
2021/03/24 07:04:30;;;;;;;64.93;37.87;;;5.00;94.90;;;;;;4964774;28;20050;-79
2021/03/24 07:07:08;;;;;;;71.67;38.57;;;5.20;94.90;;;;;;5034391;28;20040;-82
2021/03/24 07:09:57;;;;;;;74.83;40.03;;;5.30;94.80;;;;;;5031219;28;20051;-83
2021/03/24 07:13:00;;;;;;;66.50;38.03;;;5.50;94.80;;;;;;5047589;28;20494;-78
2021/03/24 07:15:59;;;;;;;62.70;33.78;;;5.70;94.80;;;;;;5018193;28;20037;-77
2021/03/24 07:18:54;;;;;;;65.50;35.47;;;5.80;94.70;;;;;;5018914;28;20411;-78
2021/03/24 07:21:42;;;;;;;84.17;44.23;;;6.00;94.60;;;;;;5012950;28;20055;-78
2021/03/24 07:24:34;;;;;;;86.33;46.77;;;6.10;94.60;;;;;;5033879;28;20033;-77
2021/03/24 07:27:27;;;;;;;76.03;43.30;;;6.20;94.60;;;;;;5033038;28;20064;-77
2021/03/24 07:30:06;;;;;;;76.05;44.30;;;6.40;94.70;;;;;;5022867;28;20487;-77
2021/03/24 07:32:43;;;;;;;78.27;44.10;;;6.50;94.60;;;;;;5031696;28;20043;-76
2021/03/24 07:35:46;;;;;;;79.90;44.93;;;6.60;94.50;;;;;;5020650;28;20498;-77
2021/03/24 07:38:30;;;;;;;77.93;44.97;;;6.80;94.50;;;;;;5048027;28;20033;-78
2021/03/24 07:41:00;;;;;;;74.45;40.92;;;6.90;94.40;;;;;;5052232;28;20044;-78
2021/03/24 07:43:29;;;;;;;67.50;39.43;;;7.00;94.30;;;;;;5008189;28;20032;-79
2021/03/24 07:46:26;;;;;;;81.43;45.83;;;7.20;94.30;;;;;;5028084;28;20123;-77
2021/03/24 07:49:14;;;;;;;70.53;41.85;;;7.30;94.30;;;;;;5008436;28;20029;-77
2021/03/24 07:51:52;;;;;;;75.23;43.77;;;7.50;94.20;;;;;;5019409;28;20040;-77
2021/03/24 07:54:47;;;;;;;76.88;45.60;;;7.60;94.10;;;;;;5037029;28;20040;-77
2021/03/24 07:57:22;;;;;;;81.65;45.90;;;7.70;94.30;;;;;;5031081;28;20059;-77
2021/03/24 08:00:04;;;;;;;72.47;41.38;;;7.80;93.80;;;;;;5034168;28;20399;-77
2021/03/24 08:02:41;;;;;;;;;;;8.00;93.80;;;;;;5048996;28;20053;-76
2021/03/24 08:05:19;;;;;;;71.53;42.28;;;8.10;93.60;;;;;;5017430;28;19909;-77
2021/03/24 08:08:16;;;;;;;85.13;46.40;;;8.20;93.50;;;;;;5022011;28;20044;-77
2021/03/24 08:11:09;;;;;;;70.95;43.25;;;8.30;93.30;;;;;;5026871;28;20048;-77
2021/03/24 08:13:54;;;;;;;77.05;45.65;;;8.50;93.20;;;;;;5016331;28;20028;-77
2021/03/24 08:16:52;;;;;;;76.60;47.00;;;8.60;93.00;;;;;;5028616;28;20056;-77
2021/03/24 08:19:37;;;;;;;68.03;40.60;;;8.60;92.70;;;;;;5029902;28;20032;-77
2021/03/24 08:22:17;;;;;;;75.72;41.58;;;8.80;92.70;;;;;;5014277;28;20505;-77
2021/03/24 08:24:53;;;;;;;66.93;41.17;;;8.90;92.60;;;;;;5030202;28;20043;-77
2021/03/24 08:27:41;;;;;;;86.68;45.17;;;9.10;92.60;;;;;;5028963;28;20397;-77
2021/03/24 08:30:16;;;;;;;71.80;39.70;;;9.30;92.30;;;;;;5022311;28;20032;-77
2021/03/24 08:33:07;;;;;;;84.97;46.85;;;9.40;92.20;;;;;;5046434;28;20057;-78
2021/03/24 08:35:55;;;;;;;73.07;44.35;;;9.50;91.90;;;;;;5033563;28;20470;-77
2021/03/24 08:38:40;;;;;;;70.40;43.83;;;9.70;91.80;;;;;;5011309;28;20508;-77
2021/03/24 08:41:19;;;;;;;68.10;42.20;;;9.70;91.60;;;;;;5026615;28;20052;-77
2021/03/24 08:44:34;;;;;;;72.20;41.83;;;9.90;91.50;;;;;;5027224;28;20037;-78
2021/03/24 08:47:12;;;;;;;70.88;43.75;;;10.10;91.40;;;;;;4987847;28;20045;-77
2021/03/24 08:49:44;;;;;;;72.00;43.38;;;10.20;91.10;;;;;;5048473;28;20804;-78
2021/03/24 08:52:23;;;;;;;80.13;47.50;;;10.40;90.90;;;;;;5025396;28;20045;-78
2021/03/24 08:55:00;;;;;;;75.50;46.17;;;10.50;90.40;;;;;;5034110;28;20848;-78
2021/03/24 08:57:36;;;;;;;75.93;46.13;;;10.60;90.30;;;;;;5032676;28;20041;-78
2021/03/24 09:00:34;;;;;;;72.85;43.05;;;10.70;90.20;;;;;;5035148;28;20047;-78
2021/03/24 09:03:23;;;;;;;78.10;45.97;;;10.90;90.00;;;;;;5034099;28;20037;-77
2021/03/24 09:06:07;;;;;;;72.60;44.08;;;11.10;89.40;;;;;;5011890;28;20037;-78
2021/03/24 09:08:36;;;;;;;77.43;48.13;;;11.20;88.80;;;;;;5034935;28;20045;-78
2021/03/24 09:11:27;;;;;;;72.10;45.15;;;11.30;88.10;;;;;;5033416;28;20024;-78
2021/03/24 09:14:17;;;;;;;85.20;50.92;;;11.50;87.70;;;;;;5011032;28;20475;-78
2021/03/24 09:17:12;;;;;;;78.00;47.70;;;11.60;86.40;;;;;;5034780;28;20051;-78
2021/03/24 09:19:57;;;;;;;80.20;46.80;;;11.70;85.90;;;;;;5026573;28;20047;-79
2021/03/24 09:22:57;;;;;;;66.82;43.28;;;11.80;85.40;;;;;;5029876;28;20033;-78
2021/03/24 09:25:37;;;;;;;71.00;43.83;;;11.90;85.50;;;;;;5019764;28;20888;-78
2021/03/24 09:28:35;;;;;;;78.97;47.80;;;12.00;84.90;;;;;;5055415;28;20468;-79
2021/03/24 09:31:09;;;;;;;80.18;49.05;;;12.20;84.30;;;;;;5031827;28;20048;-79
2021/03/24 09:33:47;;;;;;;79.82;50.70;;;12.30;83.00;;;;;;5034422;28;20063;-79
2021/03/24 09:36:52;;;;;;;83.28;49.88;;;12.40;81.70;;;;;;5006176;28;20562;-81
2021/03/24 09:39:48;;;;;;;76.00;47.15;;;12.40;81.60;;;;;;5023894;28;20056;-82
2021/03/24 09:42:32;;;;;;;64.15;40.30;;;12.50;81.40;;;;;;5018549;28;20367;-82
2021/03/24 09:45:17;;;;;;;66.68;41.63;;;12.70;81.70;;;;;;5011651;28;20036;-79
2021/03/24 09:47:58;;;;;;;64.35;38.85;;;12.80;81.40;;;;;;5020670;28;20091;-80
2021/03/24 09:50:32;;;;;;;75.05;44.83;;;13.00;81.30;;;;;;5013821;28;20041;-79
2021/03/24 09:53:36;;;;;;;69.25;43.78;;;13.20;80.50;;;;;;5021359;28;20049;-80
2021/03/24 09:56:06;;;;;;;64.25;41.00;;;13.30;79.40;;;;;;5001755;28;20043;-79
2021/03/24 09:58:47;;;;;;;58.63;35.58;;;13.50;79.10;;;;;;5023109;28;20056;-79
2021/03/24 10:01:25;;;;;;;60.92;39.05;;;13.60;79.20;;;;;;5028157;28;20067;-79
2021/03/24 10:04:08;;;;;;;64.32;40.50;;;13.70;78.60;;;;;;5031923;28;20049;-79
2021/03/24 10:07:37;;;;;;;62.58;41.85;;;13.80;78.30;;;;;;5013669;28;20028;-79
2021/03/24 10:10:14;;;;;;;63.38;37.25;;;13.90;77.60;;;;;;4973998;28;20073;-80
2021/03/24 10:13:02;;;;;;;58.65;39.03;;;14.10;77.50;;;;;;4984501;28;20049;-85
2021/03/24 10:15:29;;;;;;;57.83;38.65;;;14.30;77.00;;;;;;5027935;28;20037;-79
2021/03/24 10:18:15;;;;;;;64.10;39.13;;;14.40;76.40;;;;;;5013338;28;20048;-80
2021/03/24 10:20:50;;;;;;;59.25;39.13;;;14.60;75.10;;;;;;5002899;28;20040;-79
2021/03/24 10:23:39;;;;;;;62.28;39.42;;;14.80;74.30;;;;;;5029541;28;20036;-79
2021/03/24 10:26:20;;;;;;;60.60;39.80;;;14.90;73.60;;;;;;5032760;28;20041;-79
2021/03/24 10:29:07;;;;;;;57.35;37.15;;;15.10;72.60;;;;;;5035786;28;20051;-79
2021/03/24 10:31:40;;;;;;;57.05;37.00;;;15.30;72.00;;;;;;5030642;28;20048;-78
2021/03/24 10:34:31;;;;;;;57.78;36.08;;;15.50;70.80;;;;;;5011537;28;20041;-77
2021/03/24 10:37:18;;;;;;;54.60;36.63;;;15.80;70.70;;;;;;5031692;28;20387;-77
2021/03/24 10:40:00;;;;;;;51.95;33.50;;;16.10;69.70;;;;;;5033320;28;20037;-85
2021/03/24 10:42:46;;;;;;;57.60;34.53;;;16.40;69.00;;;;;;5020126;28;20044;-77
2021/03/24 10:45:21;;;;;;;53.03;32.65;;;16.80;67.50;;;;;;5038164;28;20051;-77
2021/03/24 10:48:13;;;;;;;50.25;33.63;;;17.10;66.10;;;;;;5011867;28;20037;-77
2021/03/24 10:50:56;;;;;;;55.13;38.10;;;17.40;65.60;;;;;;5015098;28;20048;-78
2021/03/24 10:53:25;;;;;;;49.67;33.72;;;17.70;63.10;;;;;;5029929;28;20037;-77
2021/03/24 10:56:27;;;;;;;51.80;35.60;;;18.00;62.90;;;;;;4990378;28;20048;-77
2021/03/24 10:59:21;;;;;;;50.40;33.28;;;18.30;60.80;;;;;;5033629;28;20087;-77
2021/03/24 11:02:15;;;;;;;41.33;29.75;;;18.30;59.90;;;;;;5050137;28;20385;-78
2021/03/24 11:04:45;;;;;;;44.45;29.80;;;18.10;59.40;;;;;;5024355;28;20048;-78
2021/03/24 11:07:17;;;;;;;45.92;31.63;;;17.90;58.60;;;;;;5011246;28;20051;-78
2021/03/24 11:09:44;;;;;;;;;;;18.00;58.70;;;;;;5032605;28;20045;-78
2021/03/24 11:12:14;;;;;;;42.50;27.70;;;18.20;58.20;;;;;;5028325;28;19927;-78
2021/03/24 11:15:14;;;;;;;41.95;29.45;;;18.60;58.00;;;;;;5051248;28;20047;-78
2021/03/24 11:17:43;;;;;;;46.17;29.70;;;18.90;55.70;;;;;;5028611;28;20080;-78
2021/03/24 11:20:14;;;;;;;39.22;27.17;;;19.20;55.70;;;;;;5014526;28;20474;-78
2021/03/24 11:22:56;;;;;;;40.58;28.15;;;19.40;55.10;;;;;;5044922;28;20061;-78
2021/03/24 11:25:28;;;;;;;45.30;30.02;;;19.80;54.20;;;;;;5052981;28;20833;-80
2021/03/24 11:28:26;;;;;;;40.67;29.10;;;20.20;52.30;;;;;;5020415;28;20033;-78
2021/03/24 11:31:15;;;;;;;38.53;26.17;;;20.50;51.40;;;;;;5024764;28;20418;-83
2021/03/24 11:34:06;;;;;;;39.75;27.20;;;20.70;49.50;;;;;;5055695;28;20040;-83
2021/03/24 11:36:34;;;;;;;38.07;26.57;;;20.80;49.20;;;;;;5021256;28;20037;-87
2021/03/24 11:39:06;;;;;;;36.20;27.02;;;21.10;48.50;;;;;;5024472;28;20031;-88
2021/03/24 11:41:36;;;;;;;37.22;25.77;;;21.40;48.40;;;;;;5023535;28;20028;-88
2021/03/24 11:44:08;;;;;;;36.80;27.42;;;21.70;47.50;;;;;;5034656;28;20056;-90
2021/03/24 11:46:43;;;;;;;37.55;26.17;;;22.00;47.20;;;;;;5019726;28;20029;-88
2021/03/24 11:49:25;;;;;;;34.58;24.60;;;22.40;46.40;;;;;;5020541;28;20036;-87
2021/03/24 11:52:09;;;;;;;39.42;28.42;;;22.60;45.50;;;;;;5009915;28;20044;-82
2021/03/24 11:54:48;;;;;;;41.70;31.10;;;23.00;45.40;;;;;;5031281;28;20045;-82
2021/03/24 11:57:33;;;;;;;33.00;24.00;;;23.20;44.10;;;;;;5015877;28;20033;-80
2021/03/24 12:00:26;;;;;;;31.02;22.02;;;23.50;44.00;;;;;;5030713;28;20460;-81
2021/03/24 12:03:56;;;;;;;33.15;23.95;;;23.80;42.90;;;;;;5046663;28;20041;-81
2021/03/24 12:06:52;;;;;;;37.05;25.13;;;23.80;40.80;;;;;;5013425;28;20041;-82
2021/03/24 12:09:22;;;;;;;36.75;27.35;;;23.70;41.00;;;;;;5054282;28;20044;-83
2021/03/24 12:11:49;;;;;;;31.60;24.48;;;24.00;40.20;;;;;;4997057;28;20501;-82
2021/03/24 12:14:22;;;;;;;29.00;21.58;;;24.00;39.90;;;;;;5031859;28;20033;-80
2021/03/24 12:16:52;;;;;;;29.95;21.88;;;23.60;40.40;;;;;;5028056;28;20060;-80
2021/03/24 12:19:33;;;;;;;26.80;19.85;;;23.20;40.50;;;;;;5013778;28;20047;-80
2021/03/24 12:22:18;;;;;;;31.45;23.88;;;23.20;41.00;;;;;;5001458;28;20115;-79
2021/03/24 12:24:47;;;;;;;30.50;23.58;;;23.30;40.30;;;;;;5014247;28;20041;-80
2021/03/24 12:27:21;;;;;;;32.30;23.13;;;23.50;40.20;;;;;;5050427;28;20024;-82
2021/03/24 12:30:05;;;;;;;34.63;23.90;;;23.80;40.30;;;;;;5026561;28;20041;-83
2021/03/24 12:32:37;;;;;;;33.15;22.40;;;24.40;39.30;;;;;;5047632;28;20040;-82
2021/03/24 12:35:06;;;;;;;;;;;24.80;38.40;;;;;;5032052;28;20064;-78
2021/03/24 12:37:45;;;;;;;30.45;22.10;;;25.10;37.90;;;;;;5030216;28;20291;-83
2021/03/24 12:40:20;;;;;;;32.35;20.38;;;25.30;37.40;;;;;;5032178;28;20029;-82
2021/03/24 12:43:07;;;;;;;29.63;21.63;;;25.60;37.10;;;;;;5105242;27;750533;-81
2021/03/24 12:45:40;;;;;;;29.05;21.17;;;25.80;37.20;;;;;;5083731;28;20475;-82
2021/03/24 12:48:12;;;;;;;24.60;19.75;;;26.10;36.50;;;;;;5084698;28;20036;-82
2021/03/24 12:50:59;;;;;;;29.27;21.23;;;26.30;36.10;;;;;;5101595;28;20470;-78
2021/03/24 12:54:07;;;;;;;29.75;22.30;;;26.60;35.70;;;;;;5064762;28;20055;-78
2021/03/24 12:57:25;;;;;;;25.98;19.80;;;26.70;35.00;;;;;;4955621;28;20038;-79
2021/03/24 13:00:10;;;;;;;30.25;21.83;;;26.90;35.50;;;;;;5042838;28;20054;-79
2021/03/24 13:02:39;;;;;;;29.15;21.92;;;27.10;35.30;;;;;;5060452;28;20044;-78
2021/03/24 13:05:18;;;;;;;27.45;21.27;;;27.20;34.60;;;;;;5080664;28;20031;-79
2021/03/24 13:07:56;;;;;;;24.98;18.50;;;27.30;34.50;;;;;;5066531;28;20031;-78
2021/03/24 13:10:33;;;;;;;26.88;22.00;;;27.50;34.10;;;;;;5066687;28;20020;-79
2021/03/24 13:13:06;;;;;;;27.88;21.42;;;27.50;33.20;;;;;;5096813;28;20048;-78
2021/03/24 13:15:43;;;;;;;24.80;18.17;;;27.40;32.70;;;;;;5083042;28;20985;-80
2021/03/24 13:18:35;;;;;;;25.50;19.20;;;27.30;33.20;;;;;;5083094;28;20035;-79
2021/03/24 13:21:23;;;;;;;33.15;23.00;;;27.40;33.90;;;;;;5049271;28;20371;-79
2021/03/24 13:24:29;;;;;;;28.85;22.15;;;27.70;33.20;;;;;;5099246;28;20040;-80
2021/03/24 13:27:04;;;;;;;30.83;22.17;;;27.80;33.00;;;;;;5101080;28;20055;-81
2021/03/24 13:29:31;;;;;;;33.17;25.35;;;27.70;32.90;;;;;;5083591;28;20034;-80
2021/03/24 13:32:05;;;;;;;26.08;21.30;;;27.70;32.80;;;;;;5079702;28;20047;-79